Time;durP1;ratioP1;P1;durP2;ratioP2;P2;SDS_P1;SDS_P2;PMS_P1;PMS_P2;Temp;Humidity;BMP_temperature;BMP_pressure;BME280_temperature;BME280_humidity;BME280_pressure;Samples;Min_cycle;Max_cycle;Signal;HPM_P1;HPM_P2
2021/06/11 00:01:40;;;;;;;13.33;12.00;;;16.40;99.90;;;;;;5072509;28;20834;-66
2021/06/11 00:04:08;;;;;;;13.73;12.17;;;16.40;99.90;;;;;;5072454;28;20868;-65
2021/06/11 00:06:36;;;;;;;14.07;12.63;;;16.40;99.90;;;;;;5072246;28;20447;-66
2021/06/11 00:09:03;;;;;;;14.10;12.07;;;16.40;99.90;;;;;;5071909;28;20469;-66
2021/06/11 00:11:29;;;;;;;13.30;11.27;;;16.30;99.90;;;;;;5071962;28;21131;-66
2021/06/11 00:13:56;;;;;;;14.03;12.67;;;16.20;99.90;;;;;;5072216;28;20447;-66
2021/06/11 00:16:22;;;;;;;13.60;12.20;;;16.10;99.90;;;;;;5072857;28;20496;-67
2021/06/11 00:18:48;;;;;;;13.13;11.80;;;16.00;99.90;;;;;;5072435;28;20511;-65
2021/06/11 00:21:16;;;;;;;14.30;12.80;;;15.90;99.90;;;;;;5071514;28;20443;-66
2021/06/11 00:23:43;;;;;;;14.43;12.93;;;15.80;99.90;;;;;;5072126;28;20538;-65
2021/06/11 00:26:09;;;;;;;15.10;13.60;;;15.70;99.90;;;;;;5071958;28;20961;-66
2021/06/11 00:28:35;;;;;;;16.10;14.50;;;15.70;99.90;;;;;;5071758;28;20538;-65
2021/06/11 00:31:02;;;;;;;14.10;12.60;;;15.70;99.90;;;;;;5071591;28;20454;-66
2021/06/11 00:33:28;;;;;;;14.50;13.10;;;15.60;99.90;;;;;;5071759;28;20439;-66
2021/06/11 00:35:54;;;;;;;14.50;13.20;;;15.60;99.90;;;;;;5071631;28;20459;-66
2021/06/11 00:38:22;;;;;;;17.00;15.30;;;15.50;99.90;;;;;;5071957;28;20467;-66
2021/06/11 00:40:48;;;;;;;18.03;14.83;;;15.50;99.90;;;;;;5071525;28;20463;-66
2021/06/11 00:43:15;;;;;;;19.33;14.60;;;15.50;99.90;;;;;;5071654;28;20447;-66
2021/06/11 00:45:42;;;;;;;15.77;14.20;;;15.40;99.90;;;;;;5072246;28;20545;-66
2021/06/11 00:48:09;;;;;;;16.17;12.97;;;15.40;99.90;;;;;;5071277;28;20442;-66
2021/06/11 00:50:36;;;;;;;15.70;14.10;;;15.30;99.90;;;;;;5071061;28;20459;-66
2021/06/11 00:53:03;;;;;;;16.70;15.00;;;15.20;99.90;;;;;;5071293;28;20480;-66
2021/06/11 00:55:32;;;;;;;18.90;15.47;;;15.10;99.90;;;;;;5071657;28;20474;-66
2021/06/11 00:57:58;;;;;;;16.27;14.63;;;15.10;99.90;;;;;;5071165;28;20445;-66
2021/06/11 01:00:25;;;;;;;17.87;16.07;;;15.10;99.90;;;;;;5070984;28;20549;-66
2021/06/11 01:02:51;;;;;;;17.87;15.57;;;15.10;99.90;;;;;;5071329;28;20445;-66
2021/06/11 01:05:18;;;;;;;16.90;15.20;;;15.00;99.90;;;;;;5071687;28;20441;-66
2021/06/11 01:07:49;;;;;;;16.10;14.50;;;15.10;99.90;;;;;;5072064;28;20439;-66
2021/06/11 01:10:16;;;;;;;18.07;14.93;;;15.00;99.90;;;;;;5071397;28;20459;-66
2021/06/11 01:12:45;;;;;;;14.37;12.87;;;15.00;99.90;;;;;;5071903;28;20525;-65
2021/06/11 01:15:12;;;;;;;17.30;15.50;;;14.90;99.90;;;;;;5071626;28;20515;-66
2021/06/11 01:17:39;;;;;;;18.43;14.87;;;14.90;99.90;;;;;;5071505;28;20500;-66
2021/06/11 01:20:09;;;;;;;18.73;15.30;;;14.90;99.90;;;;;;5070741;28;20474;-66
2021/06/11 01:22:50;;;;;;;17.20;15.50;;;14.90;99.90;;;;;;5071370;28;20439;-66
2021/06/11 01:25:26;;;;;;;17.90;14.90;;;14.80;99.90;;;;;;5071209;28;20922;-66
2021/06/11 01:27:54;;;;;;;16.53;14.93;;;14.80;99.90;;;;;;5070957;28;20524;-66
2021/06/11 01:30:22;;;;;;;17.73;15.83;;;14.80;99.90;;;;;;5070733;28;20511;-66
2021/06/11 01:32:51;;;;;;;18.03;15.70;;;14.70;99.90;;;;;;5070974;28;20453;-66
2021/06/11 01:35:22;;;;;;;18.30;15.60;;;14.70;99.90;;;;;;5070861;28;20439;-66
2021/06/11 01:37:52;;;;;;;18.20;16.30;;;14.70;99.90;;;;;;5070817;28;20447;-66
2021/06/11 01:40:19;;;;;;;18.83;15.77;;;14.70;99.90;;;;;;5070160;28;20988;-65
2021/06/11 01:42:47;;;;;;;17.23;14.50;;;14.70;99.90;;;;;;5070856;28;20446;-65
2021/06/11 01:45:16;;;;;;;18.37;16.50;;;14.70;99.90;;;;;;5069838;28;20450;-65
2021/06/11 01:47:46;;;;;;;20.53;15.60;;;14.70;99.90;;;;;;5070713;28;20962;-66
2021/06/11 01:50:14;;;;;;;18.17;15.73;;;14.70;99.90;;;;;;5070277;28;20465;-65
2021/06/11 01:52:42;;;;;;;24.33;16.43;;;14.70;99.90;;;;;;5070377;28;20458;-66
2021/06/11 01:55:10;;;;;;;19.70;17.67;;;14.70;99.90;;;;;;5070952;28;20443;-66
2021/06/11 01:57:39;;;;;;;19.17;17.23;;;14.70;99.90;;;;;;5070909;28;20533;-65
2021/06/11 02:00:07;;;;;;;20.57;18.43;;;14.70;99.90;;;;;;5070125;28;20498;-65
2021/06/11 02:02:36;;;;;;;21.83;18.40;;;14.80;99.90;;;;;;5072556;28;20447;-66
2021/06/11 02:05:03;;;;;;;21.20;18.23;;;14.80;99.90;;;;;;5071147;28;20457;-66
2021/06/11 02:07:31;;;;;;;20.60;18.10;;;14.70;99.90;;;;;;5070076;28;20443;-67
2021/06/11 02:09:58;;;;;;;19.23;17.33;;;14.70;99.90;;;;;;5070063;28;20964;-66
2021/06/11 02:12:24;;;;;;;21.40;18.30;;;14.60;99.90;;;;;;5070264;28;20455;-66
2021/06/11 02:14:51;;;;;;;21.80;19.50;;;14.60;99.90;;;;;;5070332;28;21060;-66
2021/06/11 02:17:18;;;;;;;18.60;16.67;;;14.60;99.90;;;;;;5070275;28;20447;-66
2021/06/11 02:19:47;;;;;;;21.33;19.13;;;14.50;99.90;;;;;;5069822;28;20497;-66
2021/06/11 02:22:15;;;;;;;21.23;19.00;;;14.40;99.90;;;;;;5069934;28;20811;-66
2021/06/11 02:24:42;;;;;;;19.40;17.33;;;14.40;99.90;;;;;;5070196;28;21078;-66
2021/06/11 02:27:09;;;;;;;23.77;21.27;;;14.40;99.90;;;;;;5069991;28;20446;-66
2021/06/11 02:29:36;;;;;;;25.57;21.90;;;14.40;99.90;;;;;;5069763;28;20469;-66
2021/06/11 02:32:03;;;;;;;26.53;20.77;;;14.30;99.90;;;;;;5070142;28;20446;-66
2021/06/11 02:34:29;;;;;;;28.20;20.33;;;14.30;99.90;;;;;;5070090;28;20831;-66
2021/06/11 02:36:57;;;;;;;24.20;21.60;;;14.20;99.90;;;;;;5070068;28;20451;-66
2021/06/11 02:39:23;;;;;;;28.30;21.10;;;14.20;99.90;;;;;;5069285;28;20516;-66
2021/06/11 02:41:55;;;;;;;25.57;21.83;;;14.20;99.90;;;;;;5069923;28;20447;-66
2021/06/11 02:44:24;;;;;;;24.43;21.33;;;14.20;99.90;;;;;;5069947;28;20443;-66
2021/06/11 02:46:55;;;;;;;22.30;19.97;;;14.20;99.90;;;;;;5070164;28;20443;-65
2021/06/11 02:49:24;;;;;;;24.60;21.30;;;14.20;99.90;;;;;;5069648;28;20459;-65
2021/06/11 02:51:52;;;;;;;22.50;18.63;;;14.30;99.90;;;;;;5069730;28;20455;-66
2021/06/11 02:54:23;;;;;;;21.20;17.50;;;14.40;99.90;;;;;;5069754;28;20546;-66
2021/06/11 02:56:54;;;;;;;21.70;19.13;;;14.40;99.90;;;;;;5072949;28;20533;-65
2021/06/11 02:59:26;;;;;;;22.97;18.70;;;14.40;99.90;;;;;;5073325;28;20487;-65
2021/06/11 03:01:57;;;;;;;20.83;18.63;;;14.40;99.90;;;;;;5074394;28;20459;-65
2021/06/11 03:04:27;;;;;;;21.27;19.00;;;14.40;99.90;;;;;;5074267;28;20937;-66
2021/06/11 03:06:56;;;;;;;20.03;17.77;;;14.30;99.90;;;;;;5074135;28;20512;-65
2021/06/11 03:09:26;;;;;;;20.50;17.97;;;14.30;99.90;;;;;;5073341;28;20524;-66
2021/06/11 03:11:55;;;;;;;20.37;18.33;;;14.30;99.90;;;;;;5073920;28;20958;-66
2021/06/11 03:14:22;;;;;;;19.47;16.50;;;14.30;99.90;;;;;;5073740;28;20441;-65
2021/06/11 03:16:51;;;;;;;20.30;16.90;;;14.30;99.90;;;;;;5073770;28;20447;-66
2021/06/11 03:19:19;;;;;;;18.47;16.40;;;14.20;99.90;;;;;;5073348;28;20529;-66
2021/06/11 03:21:49;;;;;;;20.20;18.10;;;14.20;99.90;;;;;;5073476;28;20472;-66
2021/06/11 03:24:22;;;;;;;23.43;17.97;;;14.10;99.90;;;;;;5073307;28;20445;-65
2021/06/11 03:26:55;;;;;;;20.30;18.20;;;14.20;99.90;;;;;;5072946;28;20438;-66
2021/06/11 03:29:26;;;;;;;21.10;18.60;;;14.10;99.90;;;;;;5072926;28;20462;-66
2021/06/11 03:31:57;;;;;;;22.50;19.00;;;14.10;99.90;;;;;;5073209;28;20447;-66
2021/06/11 03:34:26;;;;;;;24.50;18.77;;;14.10;99.90;;;;;;5073517;28;20447;-66
2021/06/11 03:36:56;;;;;;;22.63;18.10;;;14.10;99.90;;;;;;5073044;28;20443;-66
2021/06/11 03:39:27;;;;;;;25.70;20.27;;;14.20;99.90;;;;;;5072906;28;20516;-65
2021/06/11 03:41:56;;;;;;;21.37;18.07;;;14.10;99.90;;;;;;5073319;28;20491;-65
2021/06/11 03:44:25;;;;;;;22.17;18.97;;;14.20;99.90;;;;;;5072990;28;20454;-66
2021/06/11 03:46:52;;;;;;;22.70;19.40;;;14.20;99.90;;;;;;5072916;28;20545;-66
2021/06/11 03:49:21;;;;;;;22.83;19.03;;;14.20;99.90;;;;;;5073923;28;20610;-65
2021/06/11 03:51:49;;;;;;;20.33;18.20;;;14.30;99.90;;;;;;5073770;28;20458;-66
2021/06/11 03:54:18;;;;;;;21.13;18.40;;;14.50;99.90;;;;;;5072857;28;20443;-66
2021/06/11 03:56:46;;;;;;;19.47;17.13;;;14.50;99.90;;;;;;5072553;28;20905;-66
2021/06/11 03:59:16;;;;;;;18.97;16.97;;;14.60;99.90;;;;;;5072171;28;20539;-66
2021/06/11 04:01:46;;;;;;;18.67;16.80;;;14.70;99.90;;;;;;5071418;28;20914;-65
2021/06/11 04:04:13;;;;;;;19.13;16.83;;;14.80;99.90;;;;;;5071580;28;20518;-66
2021/06/11 04:06:43;;;;;;;16.97;15.17;;;14.90;99.90;;;;;;5072043;28;20443;-66
2021/06/11 04:09:13;;;;;;;16.70;15.10;;;14.80;99.90;;;;;;5071509;28;20985;-66
2021/06/11 04:11:44;;;;;;;17.37;14.50;;;14.90;99.90;;;;;;5072427;28;20480;-66
2021/06/11 04:14:18;;;;;;;16.57;14.87;;;14.80;99.90;;;;;;5072371;28;20457;-66
2021/06/11 04:16:47;;;;;;;16.80;15.10;;;14.80;99.90;;;;;;5072385;28;20452;-67
2021/06/11 04:19:19;;;;;;;17.23;15.53;;;14.80;99.90;;;;;;5072854;28;20479;-66
2021/06/11 04:21:49;;;;;;;17.73;15.93;;;14.80;99.90;;;;;;5073650;28;20865;-66
2021/06/11 04:24:22;;;;;;;17.10;15.47;;;14.90;99.90;;;;;;5073047;28;20455;-66
2021/06/11 04:26:49;;;;;;;16.90;15.10;;;14.90;99.90;;;;;;5073324;28;20836;-67
2021/06/11 04:29:17;;;;;;;17.53;15.83;;;14.90;99.90;;;;;;5073265;28;20466;-65
2021/06/11 04:31:44;;;;;;;22.33;16.00;;;15.00;99.90;;;;;;5073339;28;20800;-65
2021/06/11 04:34:15;;;;;;;17.47;15.67;;;15.00;99.90;;;;;;5073195;28;21056;-67
2021/06/11 04:36:43;;;;;;;17.30;15.50;;;15.00;99.90;;;;;;5072919;28;20451;-66
2021/06/11 04:39:09;;;;;;;19.83;15.47;;;15.10;99.90;;;;;;5073288;28;21024;-65
2021/06/11 04:41:37;;;;;;;16.73;14.93;;;15.20;99.90;;;;;;5074598;28;21033;-66
2021/06/11 04:44:05;;;;;;;18.70;16.80;;;15.20;99.90;;;;;;5073618;28;20534;-66
2021/06/11 04:46:33;;;;;;;17.27;15.50;;;15.30;99.90;;;;;;5074005;28;20507;-66
2021/06/11 04:49:00;;;;;;;17.43;15.57;;;15.30;99.90;;;;;;5073571;28;20474;-67
2021/06/11 04:51:27;;;;;;;18.27;15.97;;;15.30;99.90;;;;;;5073976;28;21070;-66
2021/06/11 04:53:53;;;;;;;16.63;15.03;;;15.30;99.90;;;;;;5071337;28;20465;-67
2021/06/11 04:56:20;;;;;;;17.07;15.27;;;15.40;99.90;;;;;;5070539;28;21082;-66
2021/06/11 04:58:48;;;;;;;18.03;16.13;;;15.40;99.90;;;;;;5070913;28;20581;-66
2021/06/11 05:01:15;;;;;;;18.70;16.80;;;15.50;99.90;;;;;;5071491;28;20450;-65
2021/06/11 05:03:43;;;;;;;17.93;16.13;;;15.50;99.90;;;;;;5071549;28;21246;-66
2021/06/11 05:06:09;;;;;;;17.70;15.93;;;15.50;99.90;;;;;;5070880;28;20454;-69
2021/06/11 05:08:36;;;;;;;17.53;15.93;;;15.50;99.90;;;;;;5071393;28;20482;-66
2021/06/11 05:11:03;;;;;;;18.50;16.70;;;15.60;99.90;;;;;;5070128;28;20504;-68
2021/06/11 05:13:29;;;;;;;17.43;15.73;;;15.50;99.90;;;;;;5070191;28;20478;-67
2021/06/11 05:15:56;;;;;;;18.10;16.40;;;15.60;99.90;;;;;;5071576;28;20558;-67
2021/06/11 05:18:25;;;;;;;17.77;15.50;;;15.70;99.90;;;;;;5071589;28;20537;-68
2021/06/11 05:20:53;;;;;;;16.70;14.87;;;15.80;99.90;;;;;;5070563;28;20584;-67
2021/06/11 05:23:20;;;;;;;16.10;14.50;;;15.90;99.90;;;;;;5072448;28;20455;-67
2021/06/11 05:25:47;;;;;;;16.73;14.93;;;16.00;99.90;;;;;;5071366;28;20451;-68
2021/06/11 05:28:14;;;;;;;16.67;15.07;;;16.10;99.90;;;;;;5072404;28;20523;-67
2021/06/11 05:30:40;;;;;;;16.60;14.80;;;16.10;99.90;;;;;;5070684;28;20554;-67
2021/06/11 05:33:07;;;;;;;16.13;14.47;;;16.20;99.90;;;;;;5070897;28;20530;-67
2021/06/11 05:35:33;;;;;;;16.87;15.20;;;16.20;99.90;;;;;;5071120;28;20439;-66
2021/06/11 05:38:04;;;;;;;14.83;13.43;;;16.40;99.90;;;;;;5071355;28;20573;-65
2021/06/11 05:40:31;;;;;;;14.70;13.40;;;16.40;99.90;;;;;;5070326;28;20487;-65
2021/06/11 05:42:57;;;;;;;15.80;14.10;;;16.50;99.90;;;;;;5070058;28;20897;-66
2021/06/11 05:45:25;;;;;;;14.83;13.43;;;16.60;99.90;;;;;;5069547;28;20439;-67
2021/06/11 05:47:51;;;;;;;14.70;13.20;;;16.60;99.90;;;;;;5069764;28;20447;-67
2021/06/11 05:50:18;;;;;;;13.73;12.37;;;16.70;99.90;;;;;;5069839;28;20499;-66
2021/06/11 05:52:45;;;;;;;14.03;12.73;;;16.80;99.90;;;;;;5070208;28;20579;-65
2021/06/11 05:55:14;;;;;;;12.30;11.17;;;16.90;99.90;;;;;;5070053;28;20504;-66
2021/06/11 05:57:41;;;;;;;13.97;12.57;;;16.90;99.90;;;;;;5070070;28;20459;-67
2021/06/11 06:00:09;;;;;;;13.80;12.50;;;16.90;99.90;;;;;;5067511;28;20565;-68
2021/06/11 06:02:35;;;;;;;14.30;12.90;;;17.00;99.90;;;;;;5077492;28;20475;-68
2021/06/11 06:05:02;;;;;;;13.83;12.60;;;17.10;99.90;;;;;;5076471;28;21304;-68
2021/06/11 06:07:28;;;;;;;14.10;12.70;;;17.10;99.90;;;;;;5069007;28;20949;-68
2021/06/11 06:09:55;;;;;;;12.80;11.60;;;17.20;99.90;;;;;;5068525;28;20474;-68
2021/06/11 06:12:23;;;;;;;13.60;12.30;;;17.30;99.90;;;;;;5068872;28;21111;-68
2021/06/11 06:14:49;;;;;;;12.60;11.30;;;17.30;99.90;;;;;;5068747;28;20454;-68
2021/06/11 06:17:15;;;;;;;13.03;11.87;;;17.40;99.90;;;;;;5068971;28;20443;-67
2021/06/11 06:19:43;;;;;;;12.20;10.97;;;17.50;99.90;;;;;;5068791;28;20487;-68
2021/06/11 06:22:10;;;;;;;12.93;11.70;;;17.50;99.90;;;;;;5068783;28;21027;-68
2021/06/11 06:24:36;;;;;;;12.40;11.30;;;17.60;99.90;;;;;;5069313;28;20546;-68
2021/06/11 06:27:02;;;;;;;13.10;11.80;;;17.70;99.90;;;;;;5068713;28;20827;-67
2021/06/11 06:29:31;;;;;;;14.03;12.63;;;17.80;99.90;;;;;;5068401;28;20550;-67
2021/06/11 06:31:57;;;;;;;12.17;10.87;;;17.80;99.90;;;;;;5068019;28;20530;-68
2021/06/11 06:34:25;;;;;;;13.50;12.20;;;17.90;99.90;;;;;;5069166;28;20538;-68
2021/06/11 06:36:51;;;;;;;12.87;11.67;;;18.00;99.90;;;;;;5068837;28;20490;-67
2021/06/11 06:39:18;;;;;;;14.60;13.13;;;18.10;99.90;;;;;;5068383;28;20479;-67
2021/06/11 06:41:44;;;;;;;14.40;13.03;;;18.20;99.90;;;;;;5068719;28;20857;-67
2021/06/11 06:44:11;;;;;;;13.10;11.90;;;18.30;99.90;;;;;;5068851;28;20504;-67
2021/06/11 06:46:39;;;;;;;13.20;11.87;;;18.30;99.90;;;;;;5068670;28;20514;-68
2021/06/11 06:49:07;;;;;;;15.27;13.13;;;18.40;99.90;;;;;;5068361;28;20463;-67
2021/06/11 06:51:34;;;;;;;13.97;12.67;;;18.40;99.90;;;;;;5068497;28;20474;-67
2021/06/11 06:54:02;;;;;;;14.67;13.10;;;18.50;99.90;;;;;;5068864;28;20489;-67
2021/06/11 06:56:29;;;;;;;13.13;11.93;;;18.50;99.90;;;;;;5068770;28;20485;-66
2021/06/11 06:58:55;;;;;;;17.17;12.27;;;18.60;99.90;;;;;;5068264;28;20490;-67
2021/06/11 07:01:24;;;;;;;13.50;12.30;;;18.70;99.90;;;;;;5068450;28;21259;-67
2021/06/11 07:03:56;;;;;;;12.57;11.37;;;18.80;99.90;;;;;;5068755;28;20455;-66
2021/06/11 07:06:22;;;;;;;13.80;12.33;;;18.90;99.90;;;;;;5069648;28;20457;-66
2021/06/11 07:08:49;;;;;;;11.97;10.87;;;19.10;99.90;;;;;;5069326;28;20466;-66
2021/06/11 07:11:15;;;;;;;13.40;12.10;;;19.30;99.90;;;;;;5069111;28;20496;-67
2021/06/11 07:13:41;;;;;;;12.90;11.40;;;19.50;99.90;;;;;;5069251;28;20443;-66
2021/06/11 07:16:08;;;;;;;14.20;12.20;;;19.50;99.90;;;;;;5069474;28;20443;-66
2021/06/11 07:18:34;;;;;;;12.10;11.00;;;19.60;99.90;;;;;;5069023;28;20453;-66
2021/06/11 07:21:02;;;;;;;13.17;11.90;;;19.60;99.90;;;;;;5068932;28;20570;-66
2021/06/11 07:23:31;;;;;;;13.90;12.43;;;19.70;99.90;;;;;;5069375;28;20447;-66
2021/06/11 07:25:58;;;;;;;12.83;11.03;;;19.90;99.90;;;;;;5069306;28;20541;-66
2021/06/11 07:28:26;;;;;;;12.50;11.40;;;20.00;99.90;;;;;;5068942;28;20455;-66
2021/06/11 07:30:53;;;;;;;14.63;10.33;;;20.20;99.90;;;;;;5069004;28;20477;-66
2021/06/11 07:33:19;;;;;;;12.93;11.07;;;20.40;99.90;;;;;;5069301;28;20596;-66
2021/06/11 07:35:45;;;;;;;11.50;10.40;;;20.60;99.90;;;;;;5069141;28;20447;-66
2021/06/11 07:38:13;;;;;;;12.30;11.10;;;20.80;99.90;;;;;;5069282;28;20451;-66
2021/06/11 07:40:39;;;;;;;13.40;12.10;;;20.90;99.90;;;;;;5068363;28;20535;-66
2021/06/11 07:43:06;;;;;;;12.80;10.77;;;21.00;99.90;;;;;;5070800;28;20435;-66
2021/06/11 07:45:33;;;;;;;12.23;11.13;;;21.20;99.90;;;;;;5072692;28;20835;-66
2021/06/11 07:47:59;;;;;;;15.23;11.63;;;21.30;99.90;;;;;;5072728;28;20442;-66
2021/06/11 07:50:28;;;;;;;12.70;11.40;;;21.40;99.90;;;;;;5072286;28;20465;-66
2021/06/11 07:52:54;;;;;;;11.67;10.67;;;21.50;99.90;;;;;;5072326;28;20831;-66
2021/06/11 07:55:22;;;;;;;13.37;12.00;;;21.60;99.90;;;;;;5072274;28;20819;-66
2021/06/11 07:57:48;;;;;;;12.50;11.40;;;21.70;99.90;;;;;;5072788;28;20523;-66
2021/06/11 08:00:15;;;;;;;11.83;10.83;;;21.80;99.90;;;;;;5071755;28;20996;-66
2021/06/11 08:02:42;;;;;;;12.60;11.50;;;21.70;99.90;;;;;;5071368;28;20437;-66
2021/06/11 08:05:09;;;;;;;12.93;11.93;;;21.90;99.90;;;;;;5072561;28;20205;-67
2021/06/11 08:07:36;;;;;;;12.33;11.10;;;22.10;99.90;;;;;;5072229;28;21177;-66
2021/06/11 08:10:03;;;;;;;12.13;11.03;;;22.20;99.90;;;;;;5071928;28;20473;-66
2021/06/11 08:12:31;;;;;;;12.30;11.00;;;22.20;99.90;;;;;;5072237;28;20501;-67
2021/06/11 08:14:58;;;;;;;13.00;11.80;;;22.20;99.90;;;;;;5072208;28;20522;-67
2021/06/11 08:17:25;;;;;;;12.40;11.20;;;22.30;99.90;;;;;;5072177;28;20483;-67
2021/06/11 08:19:52;;;;;;;12.47;11.37;;;22.50;99.90;;;;;;5071569;28;20483;-66
2021/06/11 08:22:19;;;;;;;12.73;11.53;;;22.70;99.90;;;;;;5071899;28;20473;-65
2021/06/11 08:24:45;;;;;;;11.83;10.73;;;22.80;99.90;;;;;;5071801;28;20455;-64
2021/06/11 08:27:11;;;;;;;11.97;10.87;;;22.90;99.90;;;;;;5072069;28;20445;-65
2021/06/11 08:29:40;;;;;;;13.10;11.90;;;23.10;99.90;;;;;;5071458;28;20470;-68
2021/06/11 08:32:07;;;;;;;12.67;11.57;;;23.30;99.90;;;;;;5072021;28;20443;-65
2021/06/11 08:34:36;;;;;;;12.27;11.20;;;23.30;99.90;;;;;;5072052;28;20447;-66
2021/06/11 08:37:03;;;;;;;11.77;10.77;;;23.40;99.90;;;;;;5071985;28;20494;-67
2021/06/11 08:39:30;;;;;;;13.43;12.20;;;23.50;99.90;;;;;;5062556;28;20509;-68
2021/06/11 08:41:57;;;;;;;13.37;12.17;;;23.60;99.90;;;;;;5060169;28;20526;-67
2021/06/11 08:44:26;;;;;;;12.87;11.67;;;23.60;99.90;;;;;;5059409;28;20533;-67
2021/06/11 08:46:54;;;;;;;13.00;11.90;;;23.50;99.90;;;;;;5062232;28;20826;-67
2021/06/11 08:49:21;;;;;;;12.90;11.70;;;23.70;99.90;;;;;;5068273;28;20455;-67
2021/06/11 08:51:48;;;;;;;12.40;11.30;;;23.80;99.90;;;;;;5071323;28;20473;-67
2021/06/11 08:54:14;;;;;;;12.97;11.77;;;24.00;99.90;;;;;;5070952;28;20435;-67
2021/06/11 08:56:40;;;;;;;12.00;11.00;;;24.20;99.90;;;;;;5071231;28;20443;-67
2021/06/11 08:59:07;;;;;;;12.97;11.87;;;24.30;99.90;;;;;;5070394;28;20487;-68
2021/06/11 09:01:34;;;;;;;12.60;11.40;;;24.40;99.90;;;;;;5070913;28;20492;-67
2021/06/11 09:04:01;;;;;;;11.87;10.90;;;24.50;99.90;;;;;;5070822;28;20485;-68
2021/06/11 09:06:28;;;;;;;13.40;11.60;;;24.60;99.90;;;;;;5070901;28;20443;-68
2021/06/11 09:08:55;;;;;;;11.33;10.27;;;24.80;99.90;;;;;;5070942;28;20532;-68
2021/06/11 09:11:23;;;;;;;13.93;12.70;;;25.00;99.90;;;;;;5071760;28;20443;-68
2021/06/11 09:13:54;;;;;;;12.13;10.93;;;25.00;99.90;;;;;;5067951;28;20518;-68
2021/06/11 09:16:22;;;;;;;12.40;11.20;;;25.10;99.90;;;;;;5070542;28;20442;-68
2021/06/11 09:18:51;;;;;;;11.33;10.43;;;25.20;99.90;;;;;;5070197;28;20498;-67
2021/06/11 09:21:37;;;;;;;12.37;11.20;;;25.30;99.90;;;;;;5070367;28;20450;-67
2021/06/11 09:24:16;;;;;;;14.20;12.17;;;25.40;99.90;;;;;;5069767;28;20450;-68
2021/06/11 09:26:44;;;;;;;12.33;11.30;;;25.50;99.90;;;;;;5069699;28;20442;-67
2021/06/11 09:29:25;;;;;;;11.10;10.10;;;25.10;99.90;;;;;;5067265;28;20984;-67
2021/06/11 09:31:52;;;;;;;10.93;10.03;;;25.10;99.90;;;;;;5050661;28;20463;-67
2021/06/11 09:34:23;;;;;;;11.17;10.20;;;25.30;99.90;;;;;;5050631;28;20448;-67
2021/06/11 09:37:02;;;;;;;10.97;10.00;;;25.50;99.90;;;;;;5070004;28;20443;-68
2021/06/11 09:39:49;;;;;;;11.60;10.70;;;25.60;99.90;;;;;;5069501;28;20481;-67
2021/06/11 09:42:17;;;;;;;11.67;10.50;;;25.90;99.90;;;;;;5067930;28;20480;-67
2021/06/11 09:44:51;;;;;;;11.63;10.73;;;26.20;99.90;;;;;;5069942;28;20436;-68
2021/06/11 09:47:30;;;;;;;11.40;10.50;;;26.30;99.90;;;;;;5068041;28;20534;-67
2021/06/11 09:49:56;;;;;;;11.60;10.60;;;26.40;99.90;;;;;;5067419;28;20530;-68
2021/06/11 09:52:24;;;;;;;12.57;11.37;;;26.70;99.90;;;;;;5070070;28;20921;-68
2021/06/11 09:54:51;;;;;;;10.80;9.83;;;26.90;99.90;;;;;;5069932;28;20443;-67
2021/06/11 09:57:22;;;;;;;11.80;10.90;;;26.80;99.90;;;;;;5059887;28;20577;-68
2021/06/11 10:00:05;;;;;;;12.23;11.27;;;26.80;98.70;;;;;;5028998;28;20485;-68
2021/06/11 10:02:32;;;;;;;11.10;10.20;;;27.00;99.90;;;;;;5069358;28;20470;-69
2021/06/11 10:04:58;;;;;;;11.77;10.70;;;27.40;97.90;;;;;;5068790;28;20937;-68
2021/06/11 10:07:27;;;;;;;13.00;12.00;;;27.70;97.60;;;;;;5069497;28;20447;-68
2021/06/11 10:09:54;;;;;;;11.10;10.10;;;28.50;96.90;;;;;;5066772;28;20490;-68
2021/06/11 10:12:20;;;;;;;11.10;10.03;;;29.00;94.00;;;;;;5069361;28;20483;-68
2021/06/11 10:14:47;;;;;;;11.00;10.00;;;29.20;95.30;;;;;;5058175;28;20506;-68
2021/06/11 10:17:13;;;;;;;9.87;8.97;;;29.40;91.70;;;;;;5060204;28;20432;-68
2021/06/11 10:19:40;;;;;;;9.97;9.17;;;29.70;92.90;;;;;;5059313;28;20480;-68
2021/06/11 10:22:07;;;;;;;9.10;8.40;;;29.80;90.50;;;;;;5069470;28;20443;-66
2021/06/11 10:24:35;;;;;;;8.63;8.03;;;30.40;92.80;;;;;;5067208;28;20445;-66
2021/06/11 10:27:01;;;;;;;7.93;7.33;;;31.00;90.10;;;;;;5069347;28;20439;-65
2021/06/11 10:29:28;;;;;;;10.73;9.87;;;31.00;81.90;;;;;;5068962;28;20455;-66
2021/06/11 10:31:55;;;;;;;9.90;9.20;;;30.60;82.60;;;;;;5069930;28;20479;-66
2021/06/11 10:34:51;;;;;;;11.47;10.63;;;30.90;90.00;;;;;;5069658;28;21031;-68
2021/06/11 10:37:38;;;;;;;9.23;8.53;;;31.30;82.20;;;;;;5067667;28;20928;-66
2021/06/11 10:40:24;;;;;;;12.17;9.63;;;31.80;81.40;;;;;;5068285;28;20944;-65
2021/06/11 10:42:51;;;;;;;11.10;10.10;;;31.40;80.80;;;;;;5069437;28;20782;-67
2021/06/11 10:45:42;;;;;;;11.23;10.33;;;31.00;81.00;;;;;;5098367;22;20505;-69
2021/06/11 10:48:09;;;;;;;10.40;9.60;;;30.30;81.00;;;;;;5080212;28;20508;-68
2021/06/11 10:50:36;;;;;;;9.90;9.10;;;30.30;83.30;;;;;;5078171;28;20438;-69
2021/06/11 10:53:11;;;;;;;9.27;8.47;;;30.70;86.20;;;;;;5079064;28;20533;-68
2021/06/11 10:55:50;;;;;;;9.67;8.87;;;31.00;78.90;;;;;;5078130;28;20459;-68
2021/06/11 10:58:27;;;;;;;9.20;8.10;;;31.20;74.20;;;;;;5074811;28;20462;-69
2021/06/11 11:00:54;;;;;;;9.03;8.20;;;31.10;75.60;;;;;;5087046;28;21045;-69
2021/06/11 11:03:32;;;;;;;8.43;7.83;;;30.80;73.90;;;;;;5079587;28;20439;-69
2021/06/11 11:06:18;;;;;;;8.63;7.83;;;30.90;76.30;;;;;;5087950;28;20449;-68
2021/06/11 11:08:51;;;;;;;8.97;8.03;;;31.30;79.50;;;;;;5078803;28;20450;-69
2021/06/11 11:11:33;;;;;;;8.80;8.03;;;31.20;75.40;;;;;;5087456;28;20452;-69
2021/06/11 11:14:00;;;;;;;10.13;9.17;;;31.80;74.50;;;;;;5087552;28;20472;-69
2021/06/11 11:16:34;;;;;;;9.57;8.67;;;32.10;73.90;;;;;;5087990;28;20533;-69
2021/06/11 11:19:00;;;;;;;10.27;9.47;;;31.80;70.40;;;;;;5091351;28;20446;-69
2021/06/11 11:21:29;;;;;;;9.17;8.37;;;31.40;70.00;;;;;;5088883;28;20577;-69
2021/06/11 11:23:57;;;;;;;11.00;10.10;;;31.40;72.90;;;;;;5088401;28;20568;-69
2021/06/11 11:26:45;;;;;;;10.60;9.70;;;31.00;73.30;;;;;;5079187;28;20449;-69
2021/06/11 11:29:13;;;;;;;10.13;9.33;;;30.50;72.10;;;;;;5078626;28;21005;-69
2021/06/11 11:31:40;;;;;;;9.37;8.67;;;30.50;70.90;;;;;;5082253;28;20457;-69
2021/06/11 11:34:07;;;;;;;10.57;9.50;;;30.80;74.20;;;;;;5082604;28;20525;-68
2021/06/11 11:36:34;;;;;;;9.30;8.43;;;31.20;73.40;;;;;;5074464;28;20451;-69
2021/06/11 11:39:01;;;;;;;8.73;8.03;;;31.60;72.40;;;;;;5075444;28;20522;-70
2021/06/11 11:41:27;;;;;;;8.77;7.93;;;32.00;81.10;;;;;;5071814;28;20479;-69
2021/06/11 11:43:55;;;;;;;8.90;8.00;;;32.70;76.30;;;;;;5087465;28;20564;-69
2021/06/11 11:46:21;;;;;;;10.40;9.50;;;33.00;77.10;;;;;;5087147;28;21111;-69
2021/06/11 11:48:47;;;;;;;9.90;8.90;;;33.50;65.70;;;;;;5088174;28;20507;-70
2021/06/11 11:51:14;;;;;;;8.10;7.30;;;34.10;68.50;;;;;;5087750;28;20440;-68
2021/06/11 11:53:40;;;;;;;7.70;7.03;;;34.40;69.40;;;;;;5088352;28;20894;-68
2021/06/11 11:56:07;;;;;;;6.87;6.37;;;34.60;68.90;;;;;;5089107;28;20909;-69
2021/06/11 11:58:33;;;;;;;7.57;6.87;;;34.90;66.70;;;;;;5084187;28;20450;-69
2021/06/11 12:01:02;;;;;;;8.57;7.87;;;34.80;66.50;;;;;;5072478;28;20854;-70
2021/06/11 12:03:28;;;;;;;8.30;7.70;;;35.10;63.00;;;;;;5075064;28;20882;-68
2021/06/11 12:05:55;;;;;;;6.97;6.37;;;34.90;63.60;;;;;;5078310;28;20514;-69
2021/06/11 12:08:21;;;;;;;9.33;8.53;;;35.30;64.80;;;;;;5079282;28;20448;-68
2021/06/11 12:10:47;;;;;;;9.47;8.77;;;34.20;60.70;;;;;;5080464;28;20439;-69
2021/06/11 12:13:14;;;;;;;9.90;9.10;;;32.60;66.00;;;;;;5089743;28;20481;-67
2021/06/11 12:15:40;;;;;;;9.03;8.33;;;32.10;70.00;;;;;;5089533;28;20450;-68
2021/06/11 12:18:08;;;;;;;9.33;8.63;;;32.20;73.00;;;;;;5090602;28;20446;-68
2021/06/11 12:20:35;;;;;;;10.47;9.70;;;33.00;74.10;;;;;;5090356;28;20482;-67
2021/06/11 12:23:03;;;;;;;9.63;8.73;;;32.80;66.00;;;;;;5090100;28;20474;-67
2021/06/11 12:25:29;;;;;;;9.80;8.80;;;33.40;71.60;;;;;;5090548;28;20852;-67
2021/06/11 12:27:56;;;;;;;9.20;8.50;;;33.70;67.50;;;;;;5084305;28;20447;-68
2021/06/11 12:30:23;;;;;;;9.23;8.43;;;34.20;65.70;;;;;;5084289;28;20892;-68
2021/06/11 12:32:49;;;;;;;8.40;7.80;;;34.20;65.60;;;;;;5079910;28;20831;-67
2021/06/11 12:35:17;;;;;;;9.00;8.20;;;34.80;66.10;;;;;;5073747;28;20466;-68
2021/06/11 12:37:43;;;;;;;9.57;7.90;;;35.10;65.30;;;;;;5078739;28;20534;-67